createdAt,value
2018-08-22T00:02:13.227Z,17.90
2018-08-22T00:04:42.449Z,17.90
2018-08-22T00:07:11.556Z,17.90
2018-08-22T00:09:40.818Z,17.90
2018-08-22T00:12:10.249Z,17.90
2018-08-22T00:14:43.638Z,18.00
2018-08-22T00:17:12.694Z,18.00
2018-08-22T00:19:41.938Z,18.00
2018-08-22T00:22:11.229Z,18.00
2018-08-22T00:24:40.299Z,18.00
2018-08-22T00:27:09.363Z,17.90
2018-08-22T00:29:39.856Z,17.90
2018-08-22T00:32:08.953Z,17.90
2018-08-22T00:34:38.003Z,17.90
2018-08-22T00:37:08.456Z,17.90
2018-08-22T00:39:37.562Z,17.90
2018-08-22T00:42:06.635Z,17.90
2018-08-22T00:44:35.683Z,17.90
2018-08-22T00:47:05.047Z,17.90
2018-08-22T00:49:34.070Z,17.90
2018-08-22T00:52:03.538Z,17.90
2018-08-22T00:54:32.600Z,17.90
2018-08-22T00:57:02.042Z,17.90
2018-08-22T00:59:31.376Z,17.90
2018-08-22T01:02:00.473Z,17.90
2018-08-22T01:04:29.547Z,17.90
2018-08-22T01:06:58.618Z,17.90
2018-08-22T01:09:28.479Z,17.90
2018-08-22T01:11:57.827Z,17.80
2018-08-22T01:14:27.028Z,17.80
2018-08-22T01:16:56.157Z,17.80
2018-08-22T01:19:25.268Z,17.70
2018-08-22T01:21:56.122Z,17.70
2018-08-22T01:24:25.249Z,17.70
2018-08-22T01:26:55.406Z,17.70
2018-08-22T01:29:24.649Z,17.70
2018-08-22T01:31:56.483Z,17.70
2018-08-22T01:34:26.116Z,17.60
2018-08-22T01:36:55.181Z,17.60
2018-08-22T01:39:24.254Z,17.60
2018-08-22T01:41:53.839Z,17.60
2018-08-22T01:44:22.996Z,17.60
2018-08-22T01:46:52.092Z,17.60
2018-08-22T01:49:21.187Z,17.60
2018-08-22T01:51:50.697Z,17.50
2018-08-22T01:54:19.763Z,17.50
2018-08-22T01:56:48.842Z,17.50
2018-08-22T01:59:17.992Z,17.60
2018-08-22T02:01:47.072Z,17.60
2018-08-22T02:04:16.157Z,17.50
2018-08-22T02:06:45.271Z,17.50
2018-08-22T02:09:14.396Z,17.50
2018-08-22T02:11:43.503Z,17.60
2018-08-22T02:14:13.059Z,17.60
2018-08-22T02:16:42.088Z,17.50
2018-08-22T02:19:11.226Z,17.50
2018-08-22T02:21:40.295Z,17.40
2018-08-22T02:24:09.635Z,17.40
2018-08-22T02:26:38.703Z,17.40
2018-08-22T02:29:08.068Z,17.30
2018-08-22T02:31:37.178Z,17.30
2018-08-22T02:34:06.327Z,17.30
2018-08-22T02:39:15.436Z,17.30
2018-08-22T02:41:44.477Z,17.40
2018-08-22T02:44:13.522Z,17.40
2018-08-22T02:46:43.283Z,17.30
2018-08-22T02:49:15.842Z,17.20
2018-08-22T02:51:44.991Z,17.20
2018-08-22T02:54:18.762Z,17.20
2018-08-22T02:56:47.915Z,17.10
2018-08-22T02:59:17.266Z,17.10
2018-08-22T03:01:46.326Z,17.00
2018-08-22T03:04:15.511Z,17.00
2018-08-22T03:06:44.969Z,17.00
2018-08-22T03:09:15.484Z,16.90
2018-08-22T03:11:44.811Z,16.80
2018-08-22T03:14:13.883Z,16.90
2018-08-22T03:16:44.162Z,16.80
2018-08-22T03:19:13.067Z,16.80
2018-08-22T03:21:41.975Z,16.70
2018-08-22T03:24:11.146Z,16.80
2018-08-22T03:26:40.535Z,16.80
2018-08-22T03:29:09.547Z,16.80
2018-08-22T03:31:38.615Z,16.80
2018-08-22T03:34:07.638Z,16.80
2018-08-22T03:36:38.120Z,16.80
2018-08-22T03:39:08.172Z,16.80
2018-08-22T03:41:37.166Z,16.90
2018-08-22T03:44:06.185Z,16.90
2018-08-22T03:46:35.476Z,16.90
2018-08-22T03:49:07.601Z,16.90
2018-08-22T03:51:36.953Z,16.90
2018-08-22T03:54:06.031Z,16.90
2018-08-22T03:56:35.504Z,16.80
2018-08-22T03:59:04.345Z,16.80
2018-08-22T04:01:33.727Z,16.80
2018-08-22T04:04:02.801Z,16.80
2018-08-22T04:06:31.950Z,16.80
2018-08-22T04:09:00.971Z,16.70
2018-08-22T04:11:30.385Z,16.70
2018-08-22T04:13:59.531Z,16.80
2018-08-22T04:16:29.902Z,16.80
2018-08-22T04:18:58.926Z,16.80
2018-08-22T04:21:27.991Z,16.80
2018-08-22T04:23:56.816Z,16.80
2018-08-22T04:26:26.111Z,16.90
2018-08-22T04:28:55.515Z,16.90
2018-08-22T04:31:24.560Z,16.90
2018-08-22T04:33:53.663Z,16.90
2018-08-22T04:36:22.902Z,17.00
2018-08-22T04:38:52.926Z,17.00
2018-08-22T04:41:22.083Z,17.00
2018-08-22T04:43:51.172Z,17.10
2018-08-22T04:46:20.842Z,17.10
2018-08-22T04:48:53.288Z,17.10
2018-08-22T04:51:22.338Z,17.10
2018-08-22T04:53:51.380Z,17.20
2018-08-22T04:56:20.421Z,17.20
2018-08-22T04:58:51.884Z,17.20
2018-08-22T05:01:20.945Z,17.20
2018-08-22T05:03:49.980Z,17.20
2018-08-22T05:06:19.057Z,17.20
2018-08-22T05:08:49.237Z,17.20
2018-08-22T05:11:18.466Z,17.20
2018-08-22T05:13:47.932Z,17.30
2018-08-22T05:16:16.973Z,17.30
2018-08-22T05:18:46.657Z,17.30
2018-08-22T05:21:16.814Z,17.30
2018-08-22T05:23:46.482Z,17.30
2018-08-22T05:26:15.531Z,17.30
2018-08-22T05:28:44.992Z,17.30
2018-08-22T05:31:15.561Z,17.30
2018-08-22T05:33:51.299Z,17.30
2018-08-22T05:36:20.631Z,17.30
2018-08-22T05:38:49.759Z,17.20
2018-08-22T05:41:21.443Z,17.20
2018-08-22T05:43:50.647Z,17.30
2018-08-22T05:46:19.706Z,17.20
2018-08-22T05:48:48.762Z,17.30
2018-08-22T05:51:18.940Z,17.30
2018-08-22T05:53:47.763Z,17.40
2018-08-22T05:56:16.602Z,17.50
2018-08-22T05:58:45.663Z,17.60
2018-08-22T06:01:15.183Z,17.70
2018-08-22T06:03:44.979Z,17.80
2018-08-22T06:06:14.393Z,17.90
2018-08-22T06:08:43.493Z,18.00
2018-08-22T06:11:12.314Z,18.20
2018-08-22T06:13:41.946Z,18.30
2018-08-22T06:16:11.356Z,18.50
2018-08-22T06:18:41.648Z,18.70
2018-08-22T06:21:29.742Z,18.80
2018-08-22T06:23:59.053Z,18.90
2018-08-22T06:26:28.826Z,19.00
2018-08-22T06:28:59.144Z,19.20
2018-08-22T06:31:28.201Z,19.20
2018-08-22T06:33:57.688Z,19.40
2018-08-22T06:36:29.452Z,19.50
2018-08-22T06:38:58.981Z,19.60
2018-08-22T06:41:28.426Z,19.70
2018-08-22T06:43:59.941Z,19.80
2018-08-22T06:46:28.992Z,19.90
2018-08-22T06:48:58.157Z,20.00
2018-08-22T06:51:32.704Z,20.10
2018-08-22T06:54:01.945Z,20.30
2018-08-22T06:56:31.687Z,20.40
2018-08-22T06:59:00.514Z,20.40
2018-08-22T07:01:31.394Z,20.50
2018-08-22T07:04:01.855Z,20.50
2018-08-22T07:06:33.971Z,20.60
2018-08-22T07:09:03.967Z,20.70
2018-08-22T07:11:32.872Z,20.70
2018-08-22T07:14:01.902Z,20.70
2018-08-22T07:16:31.082Z,20.70
2018-08-22T07:19:00.002Z,20.70
2018-08-22T07:21:30.163Z,20.70
2018-08-22T07:24:00.997Z,20.80
2018-08-22T07:26:30.755Z,20.90
2018-08-22T07:29:01.300Z,21.00
2018-08-22T07:31:41.116Z,21.10
2018-08-22T07:34:13.265Z,21.20
2018-08-22T07:36:42.405Z,21.40
2018-08-22T07:39:18.956Z,21.50
2018-08-22T07:41:48.261Z,21.60
2018-08-22T07:44:17.517Z,21.80
2018-08-22T07:46:49.435Z,21.90
2018-08-22T07:49:19.426Z,22.00
2018-08-22T07:51:49.893Z,22.10
2018-08-22T07:54:21.077Z,22.30
2018-08-22T07:56:53.157Z,22.40
2018-08-22T07:59:23.387Z,22.50
2018-08-22T08:02:01.583Z,22.60
2018-08-22T08:04:31.367Z,22.70
2018-08-22T08:07:01.398Z,22.80
2018-08-22T08:09:30.603Z,23.00
2018-08-22T08:11:59.956Z,23.20
2018-08-22T08:14:29.335Z,23.20
2018-08-22T08:16:59.154Z,23.30
2018-08-22T08:19:29.202Z,23.40
2018-08-22T08:21:58.269Z,23.50
2018-08-22T08:24:27.565Z,23.60
2018-08-22T08:27:00.802Z,23.70
2018-08-22T08:29:30.408Z,23.70
2018-08-22T08:32:01.386Z,23.80
2018-08-22T08:34:30.260Z,23.90
2018-08-22T08:36:59.362Z,24.00
2018-08-22T08:39:31.960Z,24.00
2018-08-22T08:42:02.884Z,24.10
2018-08-22T08:44:32.423Z,24.10
2018-08-22T08:47:01.380Z,24.20
2018-08-22T08:49:31.048Z,24.30
2018-08-22T08:52:01.522Z,24.40
2018-08-22T08:54:31.127Z,24.50
2018-08-22T08:57:00.015Z,24.60
2018-08-22T08:59:29.780Z,24.70
2018-08-22T09:01:59.728Z,24.80
2018-08-22T09:04:28.632Z,25.00
2018-08-22T09:06:57.835Z,25.00
2018-08-22T09:09:29.032Z,25.10
2018-08-22T09:11:58.969Z,25.20
2018-08-22T09:14:29.464Z,25.30
2018-08-22T09:16:59.572Z,25.30
2018-08-22T09:19:29.382Z,25.30
2018-08-22T09:21:58.297Z,25.30
2018-08-22T09:24:29.873Z,25.20
2018-08-22T09:26:59.971Z,25.20
2018-08-22T09:29:29.181Z,25.20
2018-08-22T09:31:58.179Z,25.30
2018-08-22T09:34:28.767Z,25.30
2018-08-22T09:36:58.052Z,25.30
2018-08-22T09:39:27.258Z,25.40
2018-08-22T09:41:56.096Z,25.50
2018-08-22T09:44:28.321Z,25.50
2018-08-22T09:46:57.616Z,25.50
2018-08-22T09:49:27.554Z,25.50
2018-08-22T09:51:56.714Z,25.50
2018-08-22T09:54:27.142Z,25.60
2018-08-22T09:56:56.210Z,25.60
2018-08-22T09:59:26.205Z,25.60
2018-08-22T10:01:55.057Z,25.70
2018-08-22T10:04:27.613Z,25.80
2018-08-22T10:06:56.834Z,25.90
2018-08-22T10:09:26.286Z,26.00
2018-08-22T10:11:55.717Z,26.00
2018-08-22T10:14:25.860Z,26.10
2018-08-22T10:16:55.346Z,26.10
2018-08-22T10:19:24.724Z,26.10
2018-08-22T10:21:54.457Z,26.20
2018-08-22T10:24:23.448Z,26.20
2018-08-22T10:26:52.461Z,26.30
2018-08-22T10:29:23.545Z,26.30
2018-08-22T10:31:54.132Z,26.30
2018-08-22T10:34:24.056Z,26.50
2018-08-22T10:36:53.661Z,26.60
2018-08-22T10:39:22.988Z,26.60
2018-08-22T10:41:53.319Z,26.70
2018-08-22T10:44:24.451Z,26.70
2018-08-22T10:46:55.160Z,26.70
2018-08-22T10:49:24.874Z,26.80
2018-08-22T10:51:56.435Z,26.90
2018-08-22T10:54:25.627Z,26.90
2018-08-22T10:56:56.629Z,27.00
2018-08-22T10:59:27.861Z,27.10
2018-08-22T11:02:01.041Z,27.20
2018-08-22T11:04:30.169Z,27.10
2018-08-22T11:07:00.161Z,27.10
2018-08-22T11:09:30.329Z,27.00
2018-08-22T11:12:01.974Z,27.00
2018-08-22T11:14:32.466Z,27.00
2018-08-22T11:17:02.829Z,27.00
2018-08-22T11:19:33.256Z,27.10
2018-08-22T11:22:13.289Z,27.20
2018-08-22T11:24:53.955Z,27.20
2018-08-22T11:27:35.364Z,27.30
2018-08-22T11:32:47.576Z,27.30
2018-08-22T11:35:15.864Z,27.40
2018-08-22T11:37:44.919Z,27.40
2018-08-22T11:40:14.232Z,27.40
2018-08-22T11:42:45.906Z,27.40
2018-08-22T11:45:15.744Z,27.40
2018-08-22T11:47:45.580Z,27.50
2018-08-22T11:50:15.994Z,27.70
2018-08-22T11:52:46.482Z,27.70
2018-08-22T11:55:24.496Z,27.80
2018-08-22T11:57:54.057Z,27.80
2018-08-22T12:00:24.860Z,27.80
2018-08-22T12:02:54.334Z,27.90
2018-08-22T12:05:25.519Z,27.80
2018-08-22T12:07:55.915Z,27.80
2018-08-22T12:10:29.333Z,27.80
2018-08-22T12:12:59.232Z,27.80
2018-08-22T12:15:29.231Z,27.90
2018-08-22T12:17:59.007Z,27.90
2018-08-22T12:20:29.405Z,28.00
2018-08-22T12:22:58.973Z,28.00
2018-08-22T12:25:30.655Z,28.00
2018-08-22T12:28:00.085Z,28.10
2018-08-22T12:30:29.695Z,28.20
2018-08-22T12:32:59.488Z,28.20
2018-08-22T12:35:28.881Z,28.30
2018-08-22T12:37:59.394Z,28.40
2018-08-22T12:40:31.314Z,28.40
2018-08-22T12:43:02.007Z,28.50
2018-08-22T12:45:31.436Z,28.40
2018-08-22T12:48:02.104Z,28.40
2018-08-22T12:50:32.757Z,28.30
2018-08-22T12:53:02.604Z,28.20
2018-08-22T12:55:32.492Z,28.30
2018-08-22T12:58:01.838Z,28.40
2018-08-22T13:00:43.024Z,28.50
2018-08-22T13:03:13.584Z,28.50
2018-08-22T13:05:42.771Z,28.50
2018-08-22T13:08:12.464Z,28.50
2018-08-22T13:10:42.297Z,28.50
2018-08-22T13:13:12.164Z,28.60
2018-08-22T13:15:41.639Z,28.60
2018-08-22T13:18:11.419Z,28.70
2018-08-22T13:20:47.517Z,28.80
2018-08-22T13:23:16.797Z,28.90
2018-08-22T13:25:46.219Z,28.90
2018-08-22T13:28:15.451Z,28.90
2018-08-22T13:30:45.390Z,28.90
2018-08-22T13:33:14.816Z,29.00
2018-08-22T13:35:44.935Z,29.00
2018-08-22T13:38:26.031Z,29.00
2018-08-22T13:40:55.398Z,29.00
2018-08-22T13:43:25.240Z,29.00
2018-08-22T13:45:54.561Z,29.00
2018-08-22T13:48:25.124Z,29.00
2018-08-22T13:50:54.330Z,29.00
2018-08-22T13:53:24.207Z,29.00
2018-08-22T13:55:53.347Z,29.10
2018-08-22T13:58:23.904Z,29.10
2018-08-22T14:00:55.543Z,29.00
2018-08-22T14:03:26.993Z,29.00
2018-08-22T14:05:57.664Z,29.00
2018-08-22T14:08:27.197Z,28.90
2018-08-22T14:10:58.600Z,28.80
2018-08-22T14:13:32.422Z,28.70
2018-08-22T14:16:01.953Z,28.70
2018-08-22T14:18:31.857Z,28.70
2018-08-22T14:21:01.425Z,28.80
2018-08-22T14:23:31.153Z,28.80
2018-08-22T14:26:03.577Z,28.80
2018-08-22T14:28:36.551Z,28.90
2018-08-22T14:31:05.895Z,28.90
2018-08-22T14:33:35.391Z,28.90
2018-08-22T14:36:04.954Z,28.90
2018-08-22T14:38:35.736Z,28.90
2018-08-22T14:41:05.516Z,28.90
2018-08-22T14:43:34.515Z,28.90
2018-08-22T14:46:03.508Z,28.90
2018-08-22T14:48:33.394Z,28.90
2018-08-22T14:51:05.667Z,28.90
2018-08-22T14:53:35.732Z,28.90
2018-08-22T14:56:05.044Z,28.90
2018-08-22T14:58:34.307Z,28.90
2018-08-22T15:01:05.610Z,28.80
2018-08-22T15:03:35.633Z,28.80
2018-08-22T15:06:04.875Z,28.80
2018-08-22T15:08:35.415Z,28.80
2018-08-22T15:11:04.729Z,28.70
2018-08-22T15:13:34.329Z,28.70
2018-08-22T15:16:05.175Z,28.70
2018-08-22T15:18:34.026Z,28.80
2018-08-22T15:21:05.617Z,28.80
2018-08-22T15:23:35.763Z,28.80
2018-08-22T15:26:05.028Z,28.70
2018-08-22T15:28:34.525Z,28.70
2018-08-22T15:31:04.314Z,28.60
2018-08-22T15:33:33.602Z,28.60
2018-08-22T15:36:03.225Z,28.60
2018-08-22T15:38:34.017Z,28.60
2018-08-22T15:41:05.422Z,28.60
2018-08-22T15:43:35.660Z,28.60
2018-08-22T15:46:05.783Z,28.60
2018-08-22T15:48:35.345Z,28.50
2018-08-22T15:51:05.288Z,28.50
2018-08-22T15:56:17.531Z,28.50
2018-08-22T15:58:47.801Z,28.50
2018-08-22T16:01:17.004Z,28.40
2018-08-22T16:03:47.128Z,28.40
2018-08-22T16:06:18.909Z,28.30
2018-08-22T16:08:48.397Z,28.30
2018-08-22T16:11:18.153Z,28.30
2018-08-22T16:14:14.560Z,28.20
2018-08-22T16:16:46.359Z,28.30
2018-08-22T16:19:16.328Z,28.20
2018-08-22T16:21:46.089Z,28.20
2018-08-22T16:24:16.071Z,28.10
2018-08-22T16:26:46.137Z,28.10
2018-08-22T16:29:16.824Z,28.00
2018-08-22T16:31:47.300Z,28.00
2018-08-22T16:34:17.743Z,27.90
2018-08-22T16:36:46.949Z,27.80
2018-08-22T16:39:30.830Z,27.80
2018-08-22T16:42:10.040Z,27.80
2018-08-22T16:44:39.693Z,27.80
2018-08-22T16:47:09.002Z,27.80
2018-08-22T16:49:38.515Z,27.70
2018-08-22T16:52:09.177Z,27.70
2018-08-22T16:54:40.270Z,27.70
2018-08-22T16:57:09.920Z,27.70
2018-08-22T16:59:39.834Z,27.70
2018-08-22T17:02:11.958Z,27.60
2018-08-22T17:04:41.744Z,27.50
2018-08-22T17:07:18.363Z,27.50
2018-08-22T17:09:53.815Z,27.40
2018-08-22T17:12:24.901Z,27.30
2018-08-22T17:14:56.019Z,27.20
2018-08-22T17:17:25.353Z,27.10
2018-08-22T17:19:55.966Z,27.00
2018-08-22T17:22:26.456Z,27.00
2018-08-22T17:24:56.594Z,26.90
2018-08-22T17:27:26.214Z,26.80
2018-08-22T17:29:55.863Z,26.70
2018-08-22T17:32:25.916Z,26.70
2018-08-22T17:34:55.849Z,26.60
2018-08-22T17:37:26.163Z,26.60
2018-08-22T17:39:57.499Z,26.60
2018-08-22T17:42:27.576Z,26.50
2018-08-22T17:44:58.460Z,26.50
2018-08-22T17:47:29.292Z,26.40
2018-08-22T17:50:06.372Z,26.30
2018-08-22T17:52:41.654Z,26.20
2018-08-22T17:55:20.402Z,26.20
2018-08-22T17:57:52.920Z,26.10
2018-08-22T18:00:23.768Z,26.00
2018-08-22T18:02:53.698Z,25.90
2018-08-22T18:05:24.161Z,25.90
2018-08-22T18:07:55.445Z,25.80
2018-08-22T18:10:25.597Z,25.80
2018-08-22T18:12:56.771Z,25.70
2018-08-22T18:15:28.090Z,25.70
2018-08-22T18:17:58.691Z,25.60
2018-08-22T18:20:30.451Z,25.60
2018-08-22T18:23:00.423Z,25.50
2018-08-22T18:25:31.444Z,25.40
2018-08-22T18:28:04.831Z,25.40
2018-08-22T18:30:35.056Z,25.30
2018-08-22T18:33:07.499Z,25.20
2018-08-22T18:35:40.631Z,25.00
2018-08-22T18:38:10.529Z,24.90
2018-08-22T18:40:40.443Z,24.80
2018-08-22T18:43:13.627Z,24.70
2018-08-22T18:46:08.567Z,24.60
2018-08-22T18:48:38.992Z,24.60
2018-08-22T18:51:08.537Z,24.50
2018-08-22T18:53:38.278Z,24.40
2018-08-22T18:56:18.045Z,24.30
2018-08-22T18:58:48.611Z,24.30
2018-08-22T19:01:18.144Z,24.20
2018-08-22T19:03:50.478Z,24.10
2018-08-22T19:06:19.575Z,24.00
2018-08-22T19:08:50.507Z,24.00
2018-08-22T19:11:22.493Z,23.90
2018-08-22T19:13:51.486Z,23.80
2018-08-22T19:16:24.368Z,23.70
2018-08-22T19:18:53.742Z,23.70
2018-08-22T19:21:24.269Z,23.60
2018-08-22T19:23:58.603Z,23.50
2018-08-22T19:26:29.094Z,23.50
2018-08-22T19:29:00.764Z,23.40
2018-08-22T19:31:30.755Z,23.40
2018-08-22T19:34:01.215Z,23.30
2018-08-22T19:36:34.314Z,23.20
2018-08-22T19:39:06.562Z,23.20
2018-08-22T19:41:36.742Z,23.10
2018-08-22T19:44:07.633Z,23.00
2018-08-22T19:46:38.070Z,22.90
2018-08-22T19:49:08.507Z,22.90
2018-08-22T19:51:39.615Z,22.80
2018-08-22T19:54:09.708Z,22.70
2018-08-22T19:56:40.169Z,22.60
2018-08-22T19:59:10.857Z,22.50
2018-08-22T20:01:41.407Z,22.40
2018-08-22T20:04:11.717Z,22.40
2018-08-22T20:06:41.572Z,22.30
2018-08-22T20:09:13.341Z,22.30
2018-08-22T20:11:43.275Z,22.30
2018-08-22T20:14:13.198Z,22.20
2018-08-22T20:16:47.384Z,22.20
2018-08-22T20:19:21.510Z,22.10
2018-08-22T20:21:58.163Z,22.10
2018-08-22T20:24:28.904Z,22.10
2018-08-22T20:27:03.916Z,22.00
2018-08-22T20:29:33.605Z,21.90
2018-08-22T20:32:05.777Z,21.90
2018-08-22T20:34:35.338Z,21.90
2018-08-22T20:37:06.420Z,21.80
2018-08-22T20:39:35.765Z,21.70
2018-08-22T20:42:10.311Z,21.70
2018-08-22T20:44:42.555Z,21.60
2018-08-22T20:47:11.720Z,21.60
2018-08-22T20:49:41.466Z,21.60
2018-08-22T20:52:11.558Z,21.50
2018-08-22T20:54:40.750Z,21.50
2018-08-22T20:57:12.949Z,21.40
2018-08-22T20:59:43.053Z,21.40
2018-08-22T21:02:12.226Z,21.40
2018-08-22T21:04:41.839Z,21.30
2018-08-22T21:07:11.760Z,21.30
2018-08-22T21:09:42.229Z,21.20
2018-08-22T21:12:11.580Z,21.20
2018-08-22T21:14:42.142Z,21.20
2018-08-22T21:17:11.904Z,21.20
2018-08-22T21:19:43.722Z,21.10
2018-08-22T21:22:25.214Z,21.10
2018-08-22T21:24:56.700Z,21.10
2018-08-22T21:27:27.523Z,21.00
2018-08-22T21:29:59.952Z,21.00
2018-08-22T21:32:31.003Z,21.00
2018-08-22T21:35:02.575Z,21.00
2018-08-22T21:37:32.146Z,20.90
2018-08-22T21:40:21.276Z,20.90
2018-08-22T21:42:52.937Z,20.80
2018-08-22T21:45:23.715Z,20.80
2018-08-22T21:48:06.863Z,20.70
2018-08-22T21:50:36.039Z,20.70
2018-08-22T21:53:06.391Z,20.60
2018-08-22T21:55:38.347Z,20.60
2018-08-22T21:58:08.112Z,20.60
2018-08-22T22:00:38.194Z,20.50
2018-08-22T22:03:07.927Z,20.50
2018-08-22T22:05:57.317Z,20.50
2018-08-22T22:08:26.290Z,20.50
2018-08-22T22:10:59.847Z,20.40
2018-08-22T22:13:30.323Z,20.40
2018-08-22T22:16:01.007Z,20.30
2018-08-22T22:18:31.780Z,20.20
2018-08-22T22:21:08.733Z,20.20
2018-08-22T22:23:42.816Z,20.20
2018-08-22T22:26:12.876Z,20.10
2018-08-22T22:28:42.284Z,20.10
2018-08-22T22:31:13.180Z,20.10
2018-08-22T22:33:59.201Z,20.00
2018-08-22T22:36:29.099Z,20.00
2018-08-22T22:38:58.292Z,19.90
2018-08-22T22:41:29.457Z,19.90
2018-08-22T22:43:58.849Z,19.90
2018-08-22T22:46:28.029Z,19.80
2018-08-22T22:48:57.861Z,19.80
2018-08-22T22:51:27.971Z,19.80
2018-08-22T22:53:57.968Z,19.80
2018-08-22T22:56:27.273Z,19.70
2018-08-22T22:58:56.415Z,19.60
2018-08-22T23:01:25.801Z,19.60
2018-08-22T23:03:57.218Z,19.60
2018-08-22T23:06:27.441Z,19.60
2018-08-22T23:08:56.780Z,19.50
2018-08-22T23:11:26.505Z,19.50
2018-08-22T23:13:55.866Z,19.40
2018-08-22T23:16:34.934Z,19.40
2018-08-22T23:19:04.316Z,19.30
2018-08-22T23:21:33.394Z,19.30
2018-08-22T23:24:08.161Z,19.30
2018-08-22T23:26:39.124Z,19.20
2018-08-22T23:29:08.253Z,19.20
2018-08-22T23:31:37.332Z,19.10
2018-08-22T23:34:11.409Z,19.10
2018-08-22T23:36:40.484Z,19.10
2018-08-22T23:39:09.691Z,19.10
2018-08-22T23:41:40.640Z,19.00
2018-08-22T23:44:10.976Z,19.00
2018-08-22T23:46:40.251Z,19.00
2018-08-22T23:49:09.865Z,18.90
2018-08-22T23:51:38.904Z,18.90
2018-08-22T23:54:08.196Z,18.80
2018-08-22T23:56:37.290Z,18.80
2018-08-22T23:59:06.846Z,18.70
